sensor_id;sensor_type;location;lat;lon;timestamp;P1;durP1;ratioP1;P2;durP2;ratioP2
4430;SDS011;2228;48.140;11.488;2023-07-31T00:01:10;3.65;;;1.85;;
4430;SDS011;2228;48.140;11.488;2023-07-31T00:03:37;5.20;;;1.98;;
4430;SDS011;2228;48.140;11.488;2023-07-31T00:06:04;1.70;;;1.60;;
4430;SDS011;2228;48.140;11.488;2023-07-31T00:08:32;3.75;;;2.10;;
4430;SDS011;2228;48.140;11.488;2023-07-31T00:11:01;5.53;;;2.23;;
4430;SDS011;2228;48.140;11.488;2023-07-31T00:13:28;4.30;;;2.10;;
4430;SDS011;2228;48.140;11.488;2023-07-31T00:15:56;3.25;;;2.13;;
4430;SDS011;2228;48.140;11.488;2023-07-31T00:18:28;3.80;;;1.80;;
4430;SDS011;2228;48.140;11.488;2023-07-31T00:20:56;3.38;;;1.80;;
4430;SDS011;2228;48.140;11.488;2023-07-31T00:23:23;5.00;;;2.42;;
4430;SDS011;2228;48.140;11.488;2023-07-31T00:25:51;6.90;;;2.33;;
4430;SDS011;2228;48.140;11.488;2023-07-31T00:28:18;4.50;;;2.00;;
4430;SDS011;2228;48.140;11.488;2023-07-31T00:30:45;3.05;;;1.90;;
4430;SDS011;2228;48.140;11.488;2023-07-31T00:33:13;5.67;;;1.93;;
4430;SDS011;2228;48.140;11.488;2023-07-31T00:35:42;4.55;;;2.30;;
4430;SDS011;2228;48.140;11.488;2023-07-31T00:38:10;3.80;;;2.10;;
4430;SDS011;2228;48.140;11.488;2023-07-31T00:40:37;3.50;;;1.90;;
4430;SDS011;2228;48.140;11.488;2023-07-31T00:43:04;5.60;;;2.20;;
4430;SDS011;2228;48.140;11.488;2023-07-31T00:45:33;4.80;;;2.00;;
4430;SDS011;2228;48.140;11.488;2023-07-31T00:48:00;4.90;;;2.38;;
4430;SDS011;2228;48.140;11.488;2023-07-31T17:02:54;5.30;;;2.20;;
4430;SDS011;2228;48.140;11.488;2023-07-31T17:05:22;5.87;;;2.30;;
4430;SDS011;2228;48.140;11.488;2023-07-31T17:07:49;7.57;;;2.50;;
4430;SDS011;2228;48.140;11.488;2023-07-31T17:10:16;6.35;;;2.42;;
4430;SDS011;2228;48.140;11.488;2023-07-31T17:12:43;6.53;;;2.53;;
4430;SDS011;2228;48.140;11.488;2023-07-31T17:15:10;4.43;;;2.50;;
4430;SDS011;2228;48.140;11.488;2023-07-31T17:17:37;5.40;;;2.30;;
4430;SDS011;2228;48.140;11.488;2023-07-31T17:20:06;5.63;;;2.40;;
4430;SDS011;2228;48.140;11.488;2023-07-31T17:22:34;5.05;;;2.30;;
4430;SDS011;2228;48.140;11.488;2023-07-31T17:25:01;4.53;;;2.80;;
4430;SDS011;2228;48.140;11.488;2023-07-31T17:27:28;4.73;;;2.10;;
4430;SDS011;2228;48.140;11.488;2023-07-31T17:29:55;3.85;;;2.40;;
4430;SDS011;2228;48.140;11.488;2023-07-31T17:32:22;3.50;;;2.10;;
4430;SDS011;2228;48.140;11.488;2023-07-31T17:34:49;4.50;;;2.10;;
4430;SDS011;2228;48.140;11.488;2023-07-31T17:37:18;7.30;;;2.50;;
4430;SDS011;2228;48.140;11.488;2023-07-31T17:39:45;7.97;;;2.30;;
4430;SDS011;2228;48.140;11.488;2023-07-31T17:42:12;3.97;;;1.95;;
4430;SDS011;2228;48.140;11.488;2023-07-31T17:44:39;7.78;;;2.05;;
4430;SDS011;2228;48.140;11.488;2023-07-31T17:47:06;2.97;;;1.88;;
4430;SDS011;2228;48.140;11.488;2023-07-31T17:49:33;4.03;;;1.80;;
4430;SDS011;2228;48.140;11.488;2023-07-31T17:52:00;3.60;;;2.00;;
4430;SDS011;2228;48.140;11.488;2023-07-31T17:54:29;3.60;;;1.73;;
4430;SDS011;2228;48.140;11.488;2023-07-31T17:56:56;5.20;;;2.40;;
4430;SDS011;2228;48.140;11.488;2023-07-31T17:59:23;5.18;;;2.60;;
4430;SDS011;2228;48.140;11.488;2023-07-31T18:01:50;3.08;;;2.17;;
4430;SDS011;2228;48.140;11.488;2023-07-31T18:04:21;5.30;;;2.30;;
4430;SDS011;2228;48.140;11.488;2023-07-31T18:06:48;4.32;;;2.13;;
4430;SDS011;2228;48.140;11.488;2023-07-31T18:09:14;4.10;;;2.10;;
4430;SDS011;2228;48.140;11.488;2023-07-31T18:11:43;3.80;;;2.13;;
4430;SDS011;2228;48.140;11.488;2023-07-31T18:14:10;4.68;;;2.40;;
4430;SDS011;2228;48.140;11.488;2023-07-31T18:16:37;5.23;;;2.00;;
4430;SDS011;2228;48.140;11.488;2023-07-31T18:19:04;4.28;;;2.20;;
4430;SDS011;2228;48.140;11.488;2023-07-31T18:21:31;6.43;;;2.23;;
4430;SDS011;2228;48.140;11.488;2023-07-31T18:24:00;11.52;;;6.20;;
4430;SDS011;2228;48.140;11.488;2023-07-31T18:26:28;13.85;;;8.00;;
4430;SDS011;2228;48.140;11.488;2023-07-31T18:28:56;6.90;;;4.70;;
4430;SDS011;2228;48.140;11.488;2023-07-31T18:31:23;7.85;;;4.55;;
4430;SDS011;2228;48.140;11.488;2023-07-31T18:33:50;5.18;;;2.50;;
4430;SDS011;2228;48.140;11.488;2023-07-31T18:36:17;6.85;;;2.55;;
4430;SDS011;2228;48.140;11.488;2023-07-31T18:38:44;6.40;;;2.25;;
4430;SDS011;2228;48.140;11.488;2023-07-31T18:41:11;5.93;;;2.20;;
4430;SDS011;2228;48.140;11.488;2023-07-31T18:43:38;4.80;;;2.90;;
4430;SDS011;2228;48.140;11.488;2023-07-31T18:46:06;3.20;;;2.40;;
4430;SDS011;2228;48.140;11.488;2023-07-31T18:48:33;4.30;;;1.88;;
4430;SDS011;2228;48.140;11.488;2023-07-31T18:51:00;3.40;;;2.20;;
4430;SDS011;2228;48.140;11.488;2023-07-31T18:53:27;3.33;;;2.28;;
4430;SDS011;2228;48.140;11.488;2023-07-31T18:55:54;5.63;;;2.10;;
4430;SDS011;2228;48.140;11.488;2023-07-31T18:58:21;6.20;;;2.50;;
4430;SDS011;2228;48.140;11.488;2023-07-31T19:00:48;6.85;;;2.70;;
4430;SDS011;2228;48.140;11.488;2023-07-31T19:03:16;6.55;;;2.33;;
4430;SDS011;2228;48.140;11.488;2023-07-31T19:05:43;7.90;;;3.00;;
4430;SDS011;2228;48.140;11.488;2023-07-31T19:08:10;7.07;;;2.30;;
4430;SDS011;2228;48.140;11.488;2023-07-31T19:10:37;4.07;;;2.10;;
4430;SDS011;2228;48.140;11.488;2023-07-31T19:13:04;5.72;;;2.15;;
4430;SDS011;2228;48.140;11.488;2023-07-31T19:15:32;4.80;;;2.27;;
4430;SDS011;2228;48.140;11.488;2023-07-31T19:17:59;4.50;;;2.30;;
4430;SDS011;2228;48.140;11.488;2023-07-31T19:20:29;8.50;;;2.60;;
4430;SDS011;2228;48.140;11.488;2023-07-31T19:22:56;4.30;;;2.60;;
4430;SDS011;2228;48.140;11.488;2023-07-31T19:25:23;3.97;;;2.30;;
4430;SDS011;2228;48.140;11.488;2023-07-31T19:27:50;6.00;;;2.50;;
4430;SDS011;2228;48.140;11.488;2023-07-31T19:30:17;3.50;;;2.40;;
4430;SDS011;2228;48.140;11.488;2023-07-31T19:32:44;6.30;;;2.20;;
4430;SDS011;2228;48.140;11.488;2023-07-31T19:35:11;5.75;;;2.50;;
4430;SDS011;2228;48.140;11.488;2023-07-31T19:37:40;4.33;;;2.10;;
4430;SDS011;2228;48.140;11.488;2023-07-31T19:40:07;3.80;;;2.60;;
4430;SDS011;2228;48.140;11.488;2023-07-31T19:42:35;4.72;;;2.38;;
4430;SDS011;2228;48.140;11.488;2023-07-31T19:45:02;5.50;;;2.60;;
4430;SDS011;2228;48.140;11.488;2023-07-31T19:47:29;3.15;;;2.00;;
4430;SDS011;2228;48.140;11.488;2023-07-31T19:49:56;3.70;;;2.42;;
4430;SDS011;2228;48.140;11.488;2023-07-31T19:52:23;3.60;;;2.20;;
4430;SDS011;2228;48.140;11.488;2023-07-31T19:54:52;3.60;;;2.15;;
4430;SDS011;2228;48.140;11.488;2023-07-31T19:57:19;3.47;;;2.33;;
4430;SDS011;2228;48.140;11.488;2023-07-31T19:59:46;4.50;;;2.33;;
4430;SDS011;2228;48.140;11.488;2023-07-31T20:02:13;4.50;;;2.10;;
4430;SDS011;2228;48.140;11.488;2023-07-31T20:04:40;3.90;;;2.35;;
4430;SDS011;2228;48.140;11.488;2023-07-31T20:07:07;3.50;;;2.13;;
4430;SDS011;2228;48.140;11.488;2023-07-31T20:09:34;5.22;;;2.38;;
4430;SDS011;2228;48.140;11.488;2023-07-31T20:12:02;4.90;;;2.80;;
4430;SDS011;2228;48.140;11.488;2023-07-31T20:14:30;4.72;;;2.35;;
4430;SDS011;2228;48.140;11.488;2023-07-31T20:16:57;5.55;;;2.70;;
4430;SDS011;2228;48.140;11.488;2023-07-31T20:19:24;5.10;;;2.43;;
4430;SDS011;2228;48.140;11.488;2023-07-31T20:21:51;6.82;;;2.45;;
4430;SDS011;2228;48.140;11.488;2023-07-31T20:24:20;5.93;;;2.90;;
4430;SDS011;2228;48.140;11.488;2023-07-31T20:26:47;7.25;;;3.85;;
4430;SDS011;2228;48.140;11.488;2023-07-31T20:29:15;4.85;;;2.55;;
4430;SDS011;2228;48.140;11.488;2023-07-31T20:31:42;5.80;;;2.80;;
4430;SDS011;2228;48.140;11.488;2023-07-31T20:34:09;3.00;;;2.20;;
4430;SDS011;2228;48.140;11.488;2023-07-31T20:36:36;4.07;;;2.42;;
4430;SDS011;2228;48.140;11.488;2023-07-31T20:39:04;4.90;;;2.40;;
4430;SDS011;2228;48.140;11.488;2023-07-31T20:41:33;9.90;;;2.67;;
4430;SDS011;2228;48.140;11.488;2023-07-31T20:44:00;3.47;;;2.25;;
4430;SDS011;2228;48.140;11.488;2023-07-31T20:46:28;5.30;;;3.00;;
4430;SDS011;2228;48.140;11.488;2023-07-31T20:48:55;4.05;;;2.33;;
4430;SDS011;2228;48.140;11.488;2023-07-31T20:51:22;3.60;;;2.15;;
4430;SDS011;2228;48.140;11.488;2023-07-31T20:53:49;4.75;;;2.20;;
4430;SDS011;2228;48.140;11.488;2023-07-31T20:56:17;3.70;;;2.10;;
4430;SDS011;2228;48.140;11.488;2023-07-31T20:58:47;4.97;;;2.47;;
4430;SDS011;2228;48.140;11.488;2023-07-31T21:01:15;6.05;;;2.47;;
4430;SDS011;2228;48.140;11.488;2023-07-31T21:03:43;6.72;;;2.90;;
4430;SDS011;2228;48.140;11.488;2023-07-31T21:06:10;4.00;;;2.33;;
4430;SDS011;2228;48.140;11.488;2023-07-31T21:08:38;4.70;;;2.70;;
4430;SDS011;2228;48.140;11.488;2023-07-31T21:11:05;4.78;;;2.10;;
4430;SDS011;2228;48.140;11.488;2023-07-31T21:13:32;4.97;;;2.40;;
4430;SDS011;2228;48.140;11.488;2023-07-31T21:16:00;3.45;;;2.30;;
4430;SDS011;2228;48.140;11.488;2023-07-31T21:18:28;3.20;;;2.10;;
4430;SDS011;2228;48.140;11.488;2023-07-31T21:20:56;3.90;;;2.40;;
4430;SDS011;2228;48.140;11.488;2023-07-31T21:23:23;4.05;;;2.17;;
4430;SDS011;2228;48.140;11.488;2023-07-31T21:25:50;3.05;;;2.10;;
4430;SDS011;2228;48.140;11.488;2023-07-31T21:28:17;4.32;;;2.33;;
4430;SDS011;2228;48.140;11.488;2023-07-31T21:30:45;4.15;;;2.30;;
4430;SDS011;2228;48.140;11.488;2023-07-31T21:33:13;7.35;;;3.00;;
4430;SDS011;2228;48.140;11.488;2023-07-31T21:35:40;4.68;;;2.60;;
4430;SDS011;2228;48.140;11.488;2023-07-31T21:38:10;4.07;;;2.40;;
4430;SDS011;2228;48.140;11.488;2023-07-31T21:40:39;5.40;;;2.40;;
4430;SDS011;2228;48.140;11.488;2023-07-31T21:43:06;3.85;;;2.67;;
4430;SDS011;2228;48.140;11.488;2023-07-31T21:45:33;5.25;;;2.50;;
4430;SDS011;2228;48.140;11.488;2023-07-31T21:48:00;5.43;;;2.70;;
4430;SDS011;2228;48.140;11.488;2023-07-31T21:50:28;5.30;;;2.60;;
4430;SDS011;2228;48.140;11.488;2023-07-31T21:52:55;4.95;;;2.60;;
4430;SDS011;2228;48.140;11.488;2023-07-31T21:55:24;3.40;;;2.70;;
4430;SDS011;2228;48.140;11.488;2023-07-31T21:57:53;6.93;;;3.03;;
4430;SDS011;2228;48.140;11.488;2023-07-31T22:00:21;4.90;;;2.90;;
4430;SDS011;2228;48.140;11.488;2023-07-31T22:02:48;4.82;;;2.53;;
4430;SDS011;2228;48.140;11.488;2023-07-31T22:05:16;4.70;;;2.60;;
4430;SDS011;2228;48.140;11.488;2023-07-31T22:07:43;4.00;;;2.60;;
4430;SDS011;2228;48.140;11.488;2023-07-31T22:10:13;5.65;;;2.60;;
4430;SDS011;2228;48.140;11.488;2023-07-31T22:12:42;5.25;;;2.90;;
4430;SDS011;2228;48.140;11.488;2023-07-31T22:15:09;5.05;;;1.98;;
4430;SDS011;2228;48.140;11.488;2023-07-31T22:17:39;5.65;;;2.50;;
4430;SDS011;2228;48.140;11.488;2023-07-31T22:20:06;3.13;;;2.13;;
4430;SDS011;2228;48.140;11.488;2023-07-31T22:22:38;4.30;;;2.45;;
4430;SDS011;2228;48.140;11.488;2023-07-31T22:25:06;3.63;;;2.10;;
4430;SDS011;2228;48.140;11.488;2023-07-31T22:27:34;5.00;;;2.50;;
4430;SDS011;2228;48.140;11.488;2023-07-31T22:30:02;4.07;;;2.10;;
4430;SDS011;2228;48.140;11.488;2023-07-31T22:32:30;5.75;;;2.50;;
4430;SDS011;2228;48.140;11.488;2023-07-31T22:34:57;4.72;;;2.00;;
4430;SDS011;2228;48.140;11.488;2023-07-31T22:37:24;4.50;;;2.40;;
4430;SDS011;2228;48.140;11.488;2023-07-31T22:39:52;5.18;;;2.40;;
4430;SDS011;2228;48.140;11.488;2023-07-31T22:42:19;3.97;;;2.30;;
4430;SDS011;2228;48.140;11.488;2023-07-31T22:44:48;6.32;;;2.40;;
4430;SDS011;2228;48.140;11.488;2023-07-31T22:47:21;3.97;;;2.50;;
4430;SDS011;2228;48.140;11.488;2023-07-31T22:49:49;5.60;;;2.90;;
4430;SDS011;2228;48.140;11.488;2023-07-31T22:52:21;4.93;;;2.60;;
4430;SDS011;2228;48.140;11.488;2023-07-31T22:54:51;4.90;;;2.60;;
4430;SDS011;2228;48.140;11.488;2023-07-31T22:57:18;6.20;;;2.97;;
4430;SDS011;2228;48.140;11.488;2023-07-31T22:59:55;5.33;;;2.87;;
4430;SDS011;2228;48.140;11.488;2023-07-31T23:05:24;5.47;;;3.00;;
4430;SDS011;2228;48.140;11.488;2023-07-31T23:07:54;5.05;;;2.85;;
4430;SDS011;2228;48.140;11.488;2023-07-31T23:10:26;5.57;;;3.40;;
4430;SDS011;2228;48.140;11.488;2023-07-31T23:12:54;5.20;;;3.00;;
4430;SDS011;2228;48.140;11.488;2023-07-31T23:15:31;4.28;;;2.90;;
4430;SDS011;2228;48.140;11.488;2023-07-31T23:18:00;4.20;;;3.07;;
4430;SDS011;2228;48.140;11.488;2023-07-31T23:20:28;7.30;;;3.00;;
4430;SDS011;2228;48.140;11.488;2023-07-31T23:22:56;4.03;;;2.80;;
4430;SDS011;2228;48.140;11.488;2023-07-31T23:25:23;6.15;;;2.83;;
4430;SDS011;2228;48.140;11.488;2023-07-31T23:28:07;4.25;;;2.65;;
4430;SDS011;2228;48.140;11.488;2023-07-31T23:30:34;5.93;;;2.90;;
4430;SDS011;2228;48.140;11.488;2023-07-31T23:33:02;5.80;;;3.20;;
4430;SDS011;2228;48.140;11.488;2023-07-31T23:35:29;5.55;;;2.70;;
4430;SDS011;2228;48.140;11.488;2023-07-31T23:37:56;3.85;;;2.42;;
4430;SDS011;2228;48.140;11.488;2023-07-31T23:40:24;5.18;;;2.60;;
4430;SDS011;2228;48.140;11.488;2023-07-31T23:42:52;3.87;;;2.70;;
4430;SDS011;2228;48.140;11.488;2023-07-31T23:45:19;4.57;;;2.75;;
4430;SDS011;2228;48.140;11.488;2023-07-31T23:47:47;4.55;;;2.90;;
4430;SDS011;2228;48.140;11.488;2023-07-31T23:50:19;6.05;;;3.13;;
4430;SDS011;2228;48.140;11.488;2023-07-31T23:52:48;4.50;;;2.80;;
